Time;durP1;ratioP1;P1;durP2;ratioP2;P2;SDS_P1;SDS_P2;PMS_P1;PMS_P2;Temp;Humidity;BMP_temperature;BMP_pressure;BME280_temperature;BME280_humidity;BME280_pressure;Samples;Min_cycle;Max_cycle;Signal;HPM_P1;HPM_P2
2022/09/11 00:01:33;;;;;;;9.45;5.15;;;16.20;99.90;;;;;;5119816;28;20047;-75
2022/09/11 00:04:00;;;;;;;6.10;4.38;;;16.10;99.90;;;;;;5119078;28;20048;-74
2022/09/11 00:06:26;;;;;;;8.38;5.57;;;16.00;99.90;;;;;;5119738;28;20294;-74
2022/09/11 00:08:56;;;;;;;6.80;4.82;;;16.00;99.90;;;;;;5120112;28;20043;-74
2022/09/11 00:11:21;;;;;;;8.88;6.75;;;15.90;99.90;;;;;;5118879;28;20050;-73
2022/09/11 00:13:50;;;;;;;13.77;8.02;;;16.00;99.90;;;;;;5119767;28;20040;-74
2022/09/11 00:16:29;;;;;;;10.73;7.93;;;16.00;99.90;;;;;;5119486;28;20429;-74
2022/09/11 00:18:57;;;;;;;10.35;7.10;;;16.00;99.90;;;;;;5119514;28;20046;-74
2022/09/11 00:21:24;;;;;;;10.73;7.43;;;16.00;99.90;;;;;;5119668;28;20032;-74
2022/09/11 00:23:50;;;;;;;11.82;8.88;;;16.10;99.90;;;;;;5119513;28;20128;-74
2022/09/11 00:26:17;;;;;;;14.20;9.65;;;16.10;99.90;;;;;;5119548;28;20032;-74
2022/09/11 00:28:44;;;;;;;14.93;10.75;;;16.20;99.90;;;;;;5119445;28;20165;-74
2022/09/11 00:31:15;;;;;;;22.75;14.60;;;16.20;99.90;;;;;;5117881;28;20043;-74
2022/09/11 00:33:41;;;;;;;29.55;17.95;;;16.30;99.90;;;;;;5119490;28;20083;-74
2022/09/11 00:36:20;;;;;;;16.55;12.02;;;16.30;99.90;;;;;;5118239;28;20092;-74
2022/09/11 00:38:46;;;;;;;16.05;10.20;;;16.40;99.90;;;;;;5118214;28;20032;-74
2022/09/11 00:41:18;;;;;;;16.85;11.98;;;16.40;99.90;;;;;;5117994;28;20063;-74
2022/09/11 00:43:58;;;;;;;26.00;16.60;;;16.40;99.90;;;;;;5118867;28;20047;-74
2022/09/11 00:46:40;;;;;;;24.30;16.77;;;16.30;99.90;;;;;;5118935;28;20123;-74
2022/09/11 00:49:37;;;;;;;19.60;13.55;;;16.40;99.90;;;;;;5119087;28;20325;-73
2022/09/11 00:52:12;;;;;;;19.63;14.20;;;16.40;99.90;;;;;;5118936;28;20075;-74
2022/09/11 00:55:07;;;;;;;20.97;15.37;;;16.30;99.90;;;;;;5118911;28;20424;-74
2022/09/11 00:57:43;;;;;;;21.58;14.13;;;16.30;99.90;;;;;;5119075;28;20441;-74
2022/09/11 01:00:10;;;;;;;21.23;15.20;;;16.30;99.90;;;;;;5118378;28;20088;-74
2022/09/11 01:02:38;;;;;;;21.15;15.70;;;16.20;99.90;;;;;;5117859;28;20438;-74
2022/09/11 01:05:05;;;;;;;23.35;15.75;;;16.20;99.90;;;;;;5118419;28;20421;-74
2022/09/11 01:07:32;;;;;;;21.58;15.13;;;16.20;99.90;;;;;;5118835;28;20038;-74
2022/09/11 01:09:58;;;;;;;21.38;15.18;;;16.20;99.90;;;;;;5117725;28;20043;-74
2022/09/11 01:13:11;;;;;;;19.55;14.57;;;16.20;99.90;;;;;;5118745;28;20375;-74
2022/09/11 01:16:03;;;;;;;19.88;14.60;;;16.20;99.90;;;;;;5110476;28;20355;-74
2022/09/11 01:19:07;;;;;;;20.10;14.07;;;16.10;99.90;;;;;;5118510;28;20070;-74
2022/09/11 01:21:58;;;;;;;15.38;12.05;;;16.10;99.90;;;;;;5118224;28;20429;-74
2022/09/11 01:24:55;;;;;;;15.18;11.55;;;16.10;99.90;;;;;;5100208;28;20138;-74
2022/09/11 01:27:50;;;;;;;15.75;12.02;;;16.10;99.90;;;;;;5118202;27;20063;-74
2022/09/11 01:30:22;;;;;;;15.52;11.02;;;16.10;99.90;;;;;;5116625;28;20036;-74
2022/09/11 01:33:04;;;;;;;15.85;11.70;;;16.10;99.90;;;;;;5118210;28;20051;-74
2022/09/11 01:35:48;;;;;;;15.63;10.70;;;16.10;99.90;;;;;;5118165;28;20043;-74
2022/09/11 01:38:27;;;;;;;14.23;10.82;;;16.00;99.90;;;;;;5117827;28;20079;-74
2022/09/11 01:41:06;;;;;;;11.95;9.25;;;16.10;99.90;;;;;;5117939;28;20130;-74
2022/09/11 01:43:43;;;;;;;10.85;8.68;;;16.00;99.90;;;;;;5117871;28;20051;-74
2022/09/11 01:46:10;;;;;;;13.90;9.57;;;16.00;99.90;;;;;;5118131;28;20066;-74
2022/09/11 01:48:40;;;;;;;13.35;9.70;;;16.00;99.90;;;;;;5117683;28;20039;-74
2022/09/11 01:51:10;;;;;;;12.00;9.55;;;16.00;99.90;;;;;;5117078;28;20043;-74
2022/09/11 01:53:39;;;;;;;15.18;10.50;;;15.90;99.90;;;;;;5116704;28;20032;-74
2022/09/11 01:56:19;;;;;;;12.95;9.80;;;16.00;99.90;;;;;;5117749;28;20031;-73
2022/09/11 01:58:47;;;;;;;11.10;9.40;;;15.90;99.90;;;;;;5117752;28;20043;-74
2022/09/11 02:01:24;;;;;;;14.05;10.48;;;15.90;99.90;;;;;;5117208;28;20032;-74
2022/09/11 02:04:26;;;;;;;13.38;10.50;;;15.90;99.90;;;;;;5117726;28;20335;-74
2022/09/11 02:07:01;;;;;;;15.48;10.95;;;15.90;99.90;;;;;;5104543;28;20048;-74
2022/09/11 02:09:34;;;;;;;11.85;8.68;;;15.90;99.90;;;;;;5117329;28;20028;-74
2022/09/11 02:12:06;;;;;;;14.30;9.55;;;15.90;99.90;;;;;;5117711;28;20067;-74
2022/09/11 02:14:42;;;;;;;13.48;9.35;;;15.90;99.90;;;;;;5117229;28;20058;-74
2022/09/11 02:17:44;;;;;;;11.43;8.38;;;15.90;99.90;;;;;;5117581;28;20046;-74
2022/09/11 02:20:10;;;;;;;10.38;7.57;;;15.80;99.90;;;;;;5117321;28;20039;-74
2022/09/11 02:22:36;;;;;;;11.45;8.05;;;15.80;99.90;;;;;;5117090;28;20451;-74
2022/09/11 02:25:03;;;;;;;11.43;7.50;;;15.70;99.90;;;;;;5117202;28;20035;-74
2022/09/11 02:27:30;;;;;;;13.48;8.68;;;15.70;99.90;;;;;;5116931;28;20421;-74
2022/09/11 02:29:58;;;;;;;10.10;8.20;;;15.70;99.90;;;;;;5116796;28;20313;-74
2022/09/11 02:32:25;;;;;;;12.23;9.07;;;15.80;99.90;;;;;;5117169;28;20035;-74
2022/09/11 02:34:54;;;;;;;8.80;7.35;;;15.70;99.90;;;;;;5117163;28;20046;-74
2022/09/11 02:37:38;;;;;;;10.30;8.27;;;15.70;99.90;;;;;;5117260;28;20036;-74
2022/09/11 02:40:16;;;;;;;9.80;7.15;;;15.80;99.90;;;;;;5115759;28;20089;-74
2022/09/11 02:43:07;;;;;;;10.18;7.72;;;15.70;99.90;;;;;;5117006;28;20051;-74
2022/09/11 02:45:54;;;;;;;9.25;6.88;;;15.70;99.90;;;;;;5115811;28;20420;-74
2022/09/11 02:48:54;;;;;;;9.63;7.78;;;15.70;99.90;;;;;;5115974;28;20042;-74
2022/09/11 02:51:43;;;;;;;10.63;6.32;;;15.70;99.90;;;;;;5116967;28;20043;-74
2022/09/11 02:54:29;;;;;;;9.00;6.65;;;15.70;99.90;;;;;;5116895;28;20043;-74
2022/09/11 02:57:08;;;;;;;9.10;7.45;;;15.70;99.90;;;;;;5117157;28;20039;-74
2022/09/11 02:59:49;;;;;;;11.32;8.00;;;15.70;99.90;;;;;;5116421;28;20043;-74
2022/09/11 03:02:17;;;;;;;10.52;8.48;;;15.60;99.90;;;;;;5115612;28;20089;-74
2022/09/11 03:04:43;;;;;;;9.93;7.95;;;15.60;99.90;;;;;;5117015;28;20043;-74
2022/09/11 03:07:08;;;;;;;11.70;8.30;;;15.60;99.90;;;;;;5115671;28;20359;-74
2022/09/11 03:09:34;;;;;;;12.52;9.88;;;15.60;99.90;;;;;;5117009;28;20122;-74
2022/09/11 03:12:01;;;;;;;12.23;8.25;;;15.70;99.90;;;;;;5116659;28;20413;-74
2022/09/11 03:14:26;;;;;;;23.15;7.50;;;15.70;99.90;;;;;;5116972;28;20042;-74
2022/09/11 03:16:52;;;;;;;13.30;5.82;;;15.70;99.90;;;;;;5115536;28;20040;-73
2022/09/11 03:19:18;;;;;;;5.95;5.03;;;15.80;99.90;;;;;;5116669;28;20081;-74
2022/09/11 03:21:43;;;;;;;9.88;7.50;;;15.80;99.90;;;;;;5116815;28;20440;-74
2022/09/11 03:24:09;;;;;;;6.47;5.78;;;15.80;99.90;;;;;;5081921;28;20144;-74
2022/09/11 03:26:36;;;;;;;6.45;5.30;;;15.80;99.90;;;;;;5116766;28;20424;-74
2022/09/11 03:29:02;;;;;;;7.57;6.20;;;15.70;99.90;;;;;;5120501;28;20043;-74
2022/09/11 03:31:27;;;;;;;8.10;6.60;;;15.60;99.90;;;;;;5120396;28;20080;-74
2022/09/11 03:33:54;;;;;;;11.38;8.98;;;15.60;99.90;;;;;;5120458;28;20048;-74
2022/09/11 03:36:20;;;;;;;7.95;6.70;;;15.60;99.90;;;;;;5120470;28;20490;-74
2022/09/11 03:38:46;;;;;;;7.22;6.07;;;15.60;99.90;;;;;;5119527;28;20309;-74
2022/09/11 03:41:13;;;;;;;8.65;5.10;;;15.50;99.90;;;;;;5120050;28;20441;-74
2022/09/11 03:43:38;;;;;;;5.72;4.80;;;15.50;99.90;;;;;;5120428;28;20058;-74
2022/09/11 03:46:04;;;;;;;5.55;4.20;;;15.50;99.90;;;;;;5120299;28;20374;-73
2022/09/11 03:48:30;;;;;;;4.55;3.58;;;15.40;99.90;;;;;;5120573;28;20063;-74
2022/09/11 03:50:57;;;;;;;5.25;4.22;;;15.40;99.90;;;;;;5120049;28;20039;-73
2022/09/11 03:53:23;;;;;;;6.28;4.80;;;15.40;99.90;;;;;;5120379;28;20047;-74
2022/09/11 03:55:49;;;;;;;5.97;4.88;;;15.40;99.90;;;;;;5119879;28;20046;-74
2022/09/11 03:58:16;;;;;;;6.95;5.18;;;15.40;99.90;;;;;;5119146;28;20045;-74
2022/09/11 04:00:43;;;;;;;7.32;5.90;;;15.40;99.90;;;;;;5118511;28;20454;-74
2022/09/11 04:03:10;;;;;;;6.68;5.68;;;15.30;99.90;;;;;;5119951;28;20119;-74
2022/09/11 04:05:36;;;;;;;6.10;5.32;;;15.30;99.90;;;;;;5119001;28;20093;-74
2022/09/11 04:08:03;;;;;;;6.30;5.38;;;15.40;99.90;;;;;;5119926;28;20047;-74
2022/09/11 04:10:30;;;;;;;7.30;6.13;;;15.40;99.90;;;;;;5119646;28;20392;-74
2022/09/11 04:12:56;;;;;;;10.48;6.50;;;15.40;99.90;;;;;;5118975;28;20040;-74
2022/09/11 04:15:21;;;;;;;6.45;5.60;;;15.40;99.90;;;;;;5119997;28;20345;-74
2022/09/11 04:17:48;;;;;;;6.97;5.22;;;15.40;99.90;;;;;;5119617;28;20039;-74
2022/09/11 04:20:13;;;;;;;4.40;4.00;;;15.40;99.90;;;;;;5119690;27;20043;-74
2022/09/11 04:22:39;;;;;;;6.22;4.50;;;15.40;99.90;;;;;;5101387;28;20043;-74
2022/09/11 04:25:06;;;;;;;4.30;3.90;;;15.40;99.90;;;;;;5119526;28;20366;-74
2022/09/11 04:27:32;;;;;;;5.28;4.00;;;15.50;99.90;;;;;;5119680;28;20092;-74
2022/09/11 04:29:58;;;;;;;5.47;4.80;;;15.50;99.90;;;;;;5119070;28;20031;-74
2022/09/11 04:32:23;;;;;;;5.95;4.57;;;15.40;99.90;;;;;;5119449;28;20429;-74
2022/09/11 04:34:49;;;;;;;8.18;5.25;;;15.40;99.90;;;;;;5119241;28;20039;-74
2022/09/11 04:37:15;;;;;;;6.85;5.22;;;15.40;99.90;;;;;;5118388;28;20329;-74
2022/09/11 04:39:41;;;;;;;6.60;4.90;;;15.40;99.90;;;;;;5100247;28;20039;-73
2022/09/11 04:42:09;;;;;;;4.85;3.97;;;15.40;99.90;;;;;;5119101;28;20050;-74
2022/09/11 04:44:35;;;;;;;7.68;3.70;;;15.30;99.90;;;;;;5117945;28;20047;-74
2022/09/11 04:47:01;;;;;;;3.28;2.97;;;15.20;99.90;;;;;;5118991;28;20141;-74
2022/09/11 04:49:26;;;;;;;3.05;2.72;;;15.20;99.90;;;;;;5119059;28;20036;-74
2022/09/11 04:51:52;;;;;;;3.22;2.60;;;15.20;99.90;;;;;;5118022;28;20047;-73
2022/09/11 04:54:20;;;;;;;4.53;2.60;;;15.10;99.90;;;;;;5118143;28;20043;-74
2022/09/11 04:56:49;;;;;;;7.25;3.47;;;15.10;99.90;;;;;;5119056;28;20382;-74
2022/09/11 04:59:18;;;;;;;7.03;3.97;;;15.10;99.90;;;;;;5115274;27;20310;-74
2022/09/11 05:01:45;;;;;;;3.60;3.30;;;15.00;99.90;;;;;;5116816;28;20039;-74
2022/09/11 05:04:14;;;;;;;8.20;3.00;;;15.00;99.90;;;;;;5118731;28;20502;-74
2022/09/11 05:06:41;;;;;;;4.25;3.00;;;15.00;99.90;;;;;;5118587;28;20429;-74
2022/09/11 05:09:08;;;;;;;7.50;3.30;;;15.00;99.90;;;;;;5117494;28;20127;-74
2022/09/11 05:11:35;;;;;;;5.63;3.00;;;15.00;99.90;;;;;;5118719;28;20071;-74
2022/09/11 05:14:01;;;;;;;5.85;3.13;;;15.00;99.90;;;;;;5117498;28;20048;-74
2022/09/11 05:16:29;;;;;;;7.53;3.65;;;15.10;99.90;;;;;;5118716;28;20044;-74
2022/09/11 05:18:55;;;;;;;3.88;3.55;;;15.20;99.90;;;;;;5118423;28;20067;-74
2022/09/11 05:21:24;;;;;;;3.67;3.38;;;15.10;99.90;;;;;;5118263;28;20043;-74
2022/09/11 05:24:00;;;;;;;4.72;3.67;;;15.20;99.90;;;;;;5117164;28;20040;-74
2022/09/11 05:26:36;;;;;;;6.10;4.32;;;15.20;99.90;;;;;;5118287;28;20040;-74
2022/09/11 05:29:20;;;;;;;4.95;4.35;;;15.30;99.90;;;;;;5118450;28;20065;-74
2022/09/11 05:31:46;;;;;;;9.80;4.13;;;15.30;99.90;;;;;;5117540;28;20120;-74
2022/09/11 05:34:12;;;;;;;9.63;4.63;;;15.30;99.90;;;;;;5118297;28;20071;-74
2022/09/11 05:36:37;;;;;;;8.90;4.50;;;15.40;99.90;;;;;;5151473;27;20047;-74
2022/09/11 05:39:03;;;;;;;11.13;5.55;;;15.50;99.90;;;;;;5118096;28;20047;-74
2022/09/11 05:41:29;;;;;;;67.93;7.65;;;15.50;99.90;;;;;;5117857;27;20140;-74
2022/09/11 05:43:57;;;;;;;7.72;4.88;;;15.60;99.90;;;;;;5116863;28;20139;-73
2022/09/11 05:46:24;;;;;;;5.35;4.85;;;15.60;99.90;;;;;;5118079;28;20128;-74
2022/09/11 05:48:50;;;;;;;5.47;4.97;;;15.70;99.90;;;;;;5118037;28;20032;-74
2022/09/11 05:51:19;;;;;;;4.82;4.43;;;15.70;99.90;;;;;;5150313;27;20324;-74
2022/09/11 05:53:45;;;;;;;5.78;5.22;;;15.70;99.90;;;;;;5118075;28;20319;-74
2022/09/11 05:56:15;;;;;;;5.50;5.00;;;15.70;99.90;;;;;;5117615;28;20383;-73
2022/09/11 05:58:42;;;;;;;7.00;5.68;;;15.80;99.90;;;;;;5117599;28;20038;-74
2022/09/11 06:01:13;;;;;;;6.60;6.00;;;15.80;99.90;;;;;;5116965;28;20039;-74
2022/09/11 06:03:39;;;;;;;9.32;5.72;;;15.90;99.90;;;;;;5117708;28;20044;-73
2022/09/11 06:06:07;;;;;;;6.57;5.43;;;15.90;99.90;;;;;;5117649;28;20110;-73
2022/09/11 06:08:34;;;;;;;7.50;6.13;;;16.00;99.90;;;;;;5116488;28;20075;-73
2022/09/11 06:11:03;;;;;;;6.43;5.40;;;16.00;99.90;;;;;;5117672;28;20058;-74
2022/09/11 06:13:31;;;;;;;18.60;6.40;;;16.00;99.90;;;;;;5116864;28;20088;-74
2022/09/11 06:15:57;;;;;;;6.20;5.35;;;16.10;99.90;;;;;;5117404;28;20047;-74
2022/09/11 06:18:22;;;;;;;6.32;5.70;;;16.20;99.90;;;;;;5117489;28;20111;-74
2022/09/11 06:20:59;;;;;;;6.53;5.60;;;16.30;99.90;;;;;;5150844;27;20039;-74
2022/09/11 06:23:25;;;;;;;7.97;5.70;;;16.30;99.90;;;;;;5116197;28;20071;-74
2022/09/11 06:25:53;;;;;;;6.38;5.78;;;16.30;99.90;;;;;;5116395;28;20032;-74
2022/09/11 06:28:22;;;;;;;5.65;5.15;;;16.40;99.90;;;;;;5117082;28;20046;-74
2022/09/11 06:30:51;;;;;;;6.63;5.93;;;16.50;99.90;;;;;;5115779;28;20051;-74
2022/09/11 06:33:20;;;;;;;14.57;10.32;;;16.50;99.90;;;;;;5116317;28;20309;-74
2022/09/11 06:35:59;;;;;;;7.75;6.95;;;16.60;99.90;;;;;;5117156;28;20459;-74
2022/09/11 06:38:26;;;;;;;8.32;7.53;;;16.80;99.90;;;;;;5116218;28;20090;-74
2022/09/11 06:40:52;;;;;;;9.85;8.55;;;16.90;99.90;;;;;;5116747;28;20148;-73
2022/09/11 06:43:18;;;;;;;8.32;7.53;;;17.00;99.90;;;;;;5117158;28;20169;-73
2022/09/11 06:45:47;;;;;;;7.90;7.07;;;17.10;99.90;;;;;;5116970;28;20093;-74
2022/09/11 06:48:14;;;;;;;9.45;8.52;;;17.20;99.90;;;;;;5116309;28;20108;-73
2022/09/11 06:50:39;;;;;;;11.00;8.40;;;17.30;99.90;;;;;;5116764;28;20413;-74
2022/09/11 06:53:09;;;;;;;14.63;12.25;;;17.40;99.90;;;;;;5115847;28;20069;-74
2022/09/11 06:55:35;;;;;;;10.35;9.35;;;17.40;99.90;;;;;;5116217;28;20324;-74
2022/09/11 06:58:03;;;;;;;9.10;8.27;;;17.50;99.90;;;;;;5150124;27;20047;-74
2022/09/11 07:00:30;;;;;;;13.38;11.55;;;17.70;99.90;;;;;;5116563;28;20332;-73
2022/09/11 07:02:56;;;;;;;12.27;10.73;;;17.80;99.90;;;;;;5120547;28;20417;-73
2022/09/11 07:05:23;;;;;;;11.30;9.77;;;17.90;99.90;;;;;;5121050;28;20305;-74
2022/09/11 07:07:51;;;;;;;13.30;11.40;;;18.00;99.90;;;;;;5120879;28;20122;-73
2022/09/11 07:10:17;;;;;;;12.98;11.32;;;18.10;99.90;;;;;;5121280;28;20042;-73
2022/09/11 07:12:43;;;;;;;14.25;10.93;;;18.20;99.90;;;;;;5120711;28;20047;-74
2022/09/11 07:15:09;;;;;;;20.38;14.55;;;18.40;99.90;;;;;;5119938;28;20055;-74
2022/09/11 07:17:35;;;;;;;22.05;17.33;;;18.40;99.90;;;;;;5121108;28;20115;-74
2022/09/11 07:20:06;;;;;;;14.43;12.45;;;18.40;99.90;;;;;;5119520;28;20443;-74
2022/09/11 07:22:33;;;;;;;18.17;14.50;;;18.50;99.90;;;;;;5120984;28;20314;-73
2022/09/11 07:24:59;;;;;;;25.83;17.65;;;18.50;99.90;;;;;;5119809;28;20039;-73
2022/09/11 07:27:26;;;;;;;19.58;15.75;;;18.70;99.90;;;;;;5119744;28;20132;-75
2022/09/11 07:29:52;;;;;;;19.50;15.07;;;18.70;99.90;;;;;;5119039;28;20051;-70
2022/09/11 07:32:18;;;;;;;22.33;16.83;;;18.80;99.90;;;;;;5120574;28;20040;-70
2022/09/11 07:34:46;;;;;;;20.95;15.38;;;18.80;99.90;;;;;;5120225;28;20328;-70
2022/09/11 07:37:12;;;;;;;24.40;15.32;;;18.90;99.90;;;;;;5120678;28;20042;-71
2022/09/11 07:39:38;;;;;;;24.33;15.50;;;19.00;99.90;;;;;;5119490;28;20421;-70
2022/09/11 07:42:06;;;;;;;18.65;13.15;;;19.10;99.90;;;;;;5120404;28;20059;-72
2022/09/11 07:44:32;;;;;;;19.27;13.88;;;19.30;99.90;;;;;;5120311;28;20083;-72
2022/09/11 07:46:59;;;;;;;21.48;14.93;;;19.40;99.90;;;;;;5120114;28;20047;-72
2022/09/11 07:49:26;;;;;;;18.27;14.15;;;19.40;99.90;;;;;;5120183;28;20420;-72
2022/09/11 07:51:53;;;;;;;16.23;12.48;;;19.30;99.90;;;;;;5120228;28;20108;-72
2022/09/11 07:54:19;;;;;;;14.52;10.25;;;19.20;99.90;;;;;;5120596;28;20044;-75
2022/09/11 07:56:45;;;;;;;14.60;8.25;;;19.20;99.90;;;;;;5122319;28;20032;-71
2022/09/11 07:59:11;;;;;;;12.23;8.50;;;19.20;99.90;;;;;;5120174;28;20492;-71
2022/09/11 08:01:37;;;;;;;12.02;9.10;;;19.20;99.90;;;;;;5119613;28;20043;-71
2022/09/11 08:04:05;;;;;;;14.30;8.70;;;19.40;99.90;;;;;;5119753;28;20039;-71
2022/09/11 08:06:34;;;;;;;10.18;7.10;;;19.60;99.90;;;;;;5120126;28;20092;-71
2022/09/11 08:09:03;;;;;;;8.63;5.70;;;19.80;99.90;;;;;;5119804;28;20035;-71
2022/09/11 08:11:30;;;;;;;13.15;5.93;;;19.90;99.90;;;;;;5119821;28;20071;-71
2022/09/11 08:13:56;;;;;;;6.15;3.45;;;20.00;99.90;;;;;;5118600;28;20072;-72
2022/09/11 08:16:24;;;;;;;10.52;3.83;;;20.00;99.90;;;;;;5119483;28;20047;-73
2022/09/11 08:18:53;;;;;;;7.85;4.88;;;20.10;99.90;;;;;;5118846;28;20430;-71
2022/09/11 08:21:20;;;;;;;8.00;4.70;;;20.10;99.90;;;;;;5119645;28;20035;-71
2022/09/11 08:23:46;;;;;;;9.32;4.88;;;20.10;99.90;;;;;;5118569;28;20058;-71
2022/09/11 08:26:14;;;;;;;7.85;4.65;;;20.10;99.90;;;;;;5119762;27;20360;-71
2022/09/11 08:28:42;;;;;;;11.05;4.53;;;20.20;99.90;;;;;;5101385;28;20123;-70
2022/09/11 08:31:08;;;;;;;9.25;4.70;;;20.10;99.90;;;;;;5118809;28;20039;-70
2022/09/11 08:33:34;;;;;;;9.55;4.85;;;20.10;99.90;;;;;;5119252;28;20083;-70
2022/09/11 08:36:02;;;;;;;8.98;4.88;;;20.10;99.90;;;;;;5119566;27;20051;-71
2022/09/11 08:38:29;;;;;;;8.45;4.53;;;20.20;99.90;;;;;;5119327;28;20063;-71
2022/09/11 08:41:09;;;;;;;11.40;4.97;;;20.20;99.90;;;;;;5118920;28;20051;-71
2022/09/11 08:43:38;;;;;;;8.82;3.90;;;20.20;99.90;;;;;;5118937;28;20107;-71
2022/09/11 08:46:10;;;;;;;12.27;3.63;;;20.50;99.90;;;;;;5119192;28;20071;-71
2022/09/11 08:48:48;;;;;;;11.65;3.25;;;20.60;99.90;;;;;;5119235;28;20039;-71
2022/09/11 08:51:16;;;;;;;6.40;3.20;;;20.50;99.90;;;;;;5152372;27;20043;-71
2022/09/11 08:53:44;;;;;;;6.43;3.80;;;20.40;99.90;;;;;;5119151;28;20122;-71
2022/09/11 08:56:21;;;;;;;13.23;4.53;;;20.30;99.90;;;;;;5118937;28;20429;-71
2022/09/11 08:59:05;;;;;;;6.63;3.40;;;20.20;99.90;;;;;;5119228;28;20298;-71
2022/09/11 09:01:45;;;;;;;5.15;3.53;;;20.40;99.90;;;;;;5118277;28;20436;-71
2022/09/11 09:04:27;;;;;;;10.25;4.22;;;20.40;99.90;;;;;;5118742;28;20048;-71
2022/09/11 09:07:00;;;;;;;7.68;4.35;;;20.20;99.90;;;;;;5118600;28;20110;-71
2022/09/11 09:10:03;;;;;;;7.18;3.60;;;20.30;99.90;;;;;;5118754;28;20345;-71
2022/09/11 09:12:55;;;;;;;7.43;3.40;;;20.50;99.90;;;;;;5118908;28;20043;-71
2022/09/11 09:15:37;;;;;;;8.35;3.70;;;20.60;99.90;;;;;;5118614;28;20035;-71
2022/09/11 09:18:29;;;;;;;7.07;3.50;;;20.60;99.90;;;;;;5118687;28;20032;-71
2022/09/11 09:21:23;;;;;;;4.53;2.03;;;20.80;99.90;;;;;;5118481;28;20036;-72
2022/09/11 09:23:54;;;;;;;5.90;2.15;;;20.90;99.90;;;;;;5118345;28;20071;-71
2022/09/11 09:26:23;;;;;;;4.88;1.98;;;21.10;99.90;;;;;;5118554;28;20031;-74
2022/09/11 09:28:53;;;;;;;6.47;2.38;;;21.30;99.90;;;;;;5117493;28;20122;-70
2022/09/11 09:31:21;;;;;;;2.78;1.42;;;21.40;99.90;;;;;;5117934;28;20036;-77
2022/09/11 09:34:19;;;;;;;4.63;1.73;;;21.40;99.90;;;;;;5117369;28;20050;-77
2022/09/11 09:36:49;;;;;;;4.57;2.10;;;21.50;99.90;;;;;;5118203;28;20044;-73
2022/09/11 09:39:16;;;;;;;4.55;1.42;;;21.30;99.90;;;;;;5117180;28;20043;-73
2022/09/11 09:42:09;;;;;;;4.10;2.00;;;21.20;99.90;;;;;;5099655;28;20066;-73
2022/09/11 09:44:53;;;;;;;5.75;1.98;;;21.20;99.90;;;;;;5117065;28;20143;-78
2022/09/11 09:47:19;;;;;;;5.50;1.85;;;21.10;99.90;;;;;;5099054;28;20044;-76
2022/09/11 09:49:45;;;;;;;4.15;1.30;;;21.40;99.90;;;;;;5101687;28;20040;-74
2022/09/11 09:52:34;;;;;;;3.88;1.30;;;21.70;99.90;;;;;;5111366;28;20172;-73
2022/09/11 09:55:03;;;;;;;4.18;1.20;;;22.00;99.90;;;;;;5105953;28;20062;-73
2022/09/11 09:57:34;;;;;;;4.70;1.10;;;22.00;99.90;;;;;;5097404;28;20344;-73
2022/09/11 10:00:15;;;;;;;3.22;1.02;;;22.40;99.90;;;;;;5096801;28;20452;-75
2022/09/11 10:02:48;;;;;;;2.22;0.82;;;22.60;99.90;;;;;;5128616;27;20550;-72
2022/09/11 10:05:19;;;;;;;8.68;1.45;;;22.50;99.90;;;;;;5099865;28;20332;-73
2022/09/11 10:07:49;;;;;;;3.50;1.20;;;22.60;99.90;;;;;;5103703;27;20039;-78
2022/09/11 10:10:27;;;;;;;5.95;1.10;;;22.50;99.90;;;;;;5106054;28;20039;-77
2022/09/11 10:12:56;;;;;;;5.13;1.20;;;22.10;99.90;;;;;;5104427;28;20079;-77
2022/09/11 10:15:24;;;;;;;3.65;1.63;;;22.50;99.90;;;;;;5115550;28;20083;-77
2022/09/11 10:18:34;;;;;;;5.55;1.08;;;22.40;99.90;;;;;;5117783;28;20035;-76
2022/09/11 10:21:12;;;;;;;4.22;1.20;;;22.50;99.90;;;;;;5117224;28;20054;-76
2022/09/11 10:23:55;;;;;;;3.25;1.20;;;22.30;99.90;;;;;;5117170;28;20043;-77
2022/09/11 10:26:44;;;;;;;5.53;1.10;;;22.20;99.90;;;;;;5116332;28;20477;-77
2022/09/11 10:29:26;;;;;;;1.70;0.90;;;21.90;99.90;;;;;;5116460;28;20306;-74
2022/09/11 10:32:01;;;;;;;5.35;1.20;;;21.70;99.90;;;;;;5116613;28;20417;-75
2022/09/11 10:34:34;;;;;;;3.75;1.65;;;21.50;99.90;;;;;;5099195;28;20043;-74
2022/09/11 10:37:07;;;;;;;4.90;1.77;;;21.40;99.90;;;;;;5116783;28;20032;-74
2022/09/11 10:39:35;;;;;;;8.30;1.90;;;21.30;99.90;;;;;;5116312;28;20123;-73
2022/09/11 10:42:14;;;;;;;4.78;2.03;;;21.10;99.90;;;;;;5116810;28;20105;-73
2022/09/11 10:44:44;;;;;;;2.95;1.70;;;20.90;99.90;;;;;;5116922;28;20059;-74
2022/09/11 10:47:21;;;;;;;5.85;1.83;;;20.80;99.90;;;;;;5116299;28;20416;-74
2022/09/11 10:49:46;;;;;;;;;;;21.00;99.90;;;;;;5116348;28;20040;-73
2022/09/11 10:52:12;;;;;;;3.00;1.58;;;21.00;99.90;;;;;;5115887;28;19984;-74
2022/09/11 10:54:46;;;;;;;3.85;1.70;;;20.90;99.90;;;;;;5150125;27;20048;-73
2022/09/11 10:57:38;;;;;;;5.10;1.88;;;21.10;99.90;;;;;;5115995;28;20043;-74
2022/09/11 11:00:16;;;;;;;7.22;2.28;;;21.20;99.90;;;;;;5115291;28;20344;-73
2022/09/11 11:02:51;;;;;;;5.00;1.90;;;21.20;99.90;;;;;;5115865;28;20332;-83
2022/09/11 11:05:38;;;;;;;5.13;1.77;;;21.20;99.90;;;;;;5115732;28;20039;-85
2022/09/11 11:08:11;;;;;;;6.57;2.10;;;21.20;99.90;;;;;;5115673;28;20047;-85
2022/09/11 11:11:13;;;;;;;7.38;2.00;;;21.10;99.90;;;;;;5099106;28;20093;-84
2022/09/11 11:14:30;;;;;;;5.85;1.80;;;21.10;99.90;;;;;;5115934;28;20043;-84
2022/09/11 11:17:04;;;;;;;5.25;1.73;;;20.90;99.90;;;;;;5065064;28;20314;-84
2022/09/11 11:20:00;;;;;;;4.55;1.80;;;21.10;99.90;;;;;;5115707;28;20053;-85
2022/09/11 11:22:35;;;;;;;5.90;1.73;;;21.20;99.90;;;;;;5115629;28;20053;-84
2022/09/11 11:25:16;;;;;;;6.00;2.22;;;21.30;99.90;;;;;;5149879;27;20058;-84
2022/09/11 11:28:06;;;;;;;4.88;1.75;;;21.20;99.90;;;;;;5098964;28;20066;-85
2022/09/11 11:30:40;;;;;;;4.00;1.67;;;21.20;99.90;;;;;;5149728;27;20044;-82
2022/09/11 11:33:27;;;;;;;4.88;1.52;;;21.10;99.90;;;;;;5115546;28;20084;-85
2022/09/11 11:36:08;;;;;;;5.40;1.60;;;21.30;99.90;;;;;;5098523;28;20092;-82
2022/09/11 11:38:42;;;;;;;4.53;1.00;;;21.50;99.90;;;;;;5114233;28;20044;-82
2022/09/11 11:41:26;;;;;;;3.83;1.27;;;21.90;99.90;;;;;;5113948;28;20097;-81
2022/09/11 11:43:54;;;;;;;3.85;1.10;;;22.30;99.90;;;;;;5116389;28;20054;-80
2022/09/11 11:46:26;;;;;;;4.32;1.52;;;22.30;99.90;;;;;;5116457;28;20111;-78
2022/09/11 11:48:54;;;;;;;3.65;1.25;;;22.50;99.90;;;;;;5117599;28;20054;-78
2022/09/11 11:51:26;;;;;;;3.00;1.13;;;22.50;99.90;;;;;;5119213;28;20424;-83
2022/09/11 11:54:01;;;;;;;3.50;1.05;;;22.60;99.90;;;;;;5102285;28;20047;-86
2022/09/11 11:56:45;;;;;;;3.90;1.25;;;22.90;99.90;;;;;;5153705;27;20126;-83
2022/09/11 11:59:18;;;;;;;7.55;1.52;;;22.90;99.90;;;;;;5102342;28;20371;-83
2022/09/11 12:02:21;;;;;;;4.05;1.52;;;22.80;99.90;;;;;;5118502;28;20044;-84
2022/09/11 12:04:58;;;;;;;3.70;1.20;;;22.80;99.90;;;;;;5093970;27;20052;-84
2022/09/11 12:07:35;;;;;;;4.45;1.35;;;22.80;99.90;;;;;;5118945;28;20060;-82
2022/09/11 12:10:04;;;;;;;6.63;1.88;;;22.60;99.90;;;;;;5101675;28;20101;-83
2022/09/11 12:13:00;;;;;;;4.38;1.45;;;22.80;99.90;;;;;;5101765;28;20092;-83
2022/09/11 12:15:30;;;;;;;2.22;1.15;;;22.90;99.90;;;;;;5119666;27;20112;-84
2022/09/11 12:18:23;;;;;;;2.60;1.10;;;23.40;99.90;;;;;;5118662;28;20043;-82
2022/09/11 12:20:49;;;;;;;1.85;1.00;;;23.60;99.90;;;;;;5110046;28;20100;-83
2022/09/11 12:23:30;;;;;;;4.45;1.23;;;23.80;99.90;;;;;;5118864;28;20036;-83
2022/09/11 12:26:21;;;;;;;2.15;1.20;;;24.30;99.90;;;;;;5101570;28;20092;-81
2022/09/11 12:28:48;;;;;;;6.80;1.42;;;24.20;99.90;;;;;;5084625;28;20094;-81
2022/09/11 12:31:17;;;;;;;5.03;1.23;;;24.40;99.90;;;;;;5100841;28;20031;-71
2022/09/11 12:33:49;;;;;;;5.30;1.33;;;24.80;99.90;;;;;;5118422;28;20043;-69
2022/09/11 12:36:23;;;;;;;3.83;1.10;;;25.00;99.40;;;;;;5119480;28;20035;-70
2022/09/11 12:39:13;;;;;;;4.13;1.00;;;25.70;99.40;;;;;;5152726;27;20078;-70
2022/09/11 12:41:38;;;;;;;3.80;1.05;;;25.90;99.10;;;;;;5119158;28;20072;-69
2022/09/11 12:44:24;;;;;;;2.38;1.45;;;25.70;99.70;;;;;;5152425;27;20164;-69
2022/09/11 12:46:52;;;;;;;3.03;1.10;;;25.80;99.30;;;;;;5119117;28;20039;-69
2022/09/11 12:49:20;;;;;;;3.55;1.50;;;26.00;99.80;;;;;;5119128;27;20063;-69
2022/09/11 12:51:58;;;;;;;2.38;1.40;;;26.30;99.10;;;;;;5119129;28;20038;-71
2022/09/11 12:54:38;;;;;;;3.55;1.60;;;26.60;98.70;;;;;;5119182;28;20079;-71
2022/09/11 12:57:14;;;;;;;2.65;1.15;;;26.50;98.80;;;;;;5119083;28;20120;-69
2022/09/11 12:59:45;;;;;;;2.88;1.27;;;26.10;99.00;;;;;;5118590;28;20078;-70
2022/09/11 13:02:42;;;;;;;4.03;1.23;;;25.70;99.00;;;;;;5117243;28;20052;-72
2022/09/11 13:05:36;;;;;;;3.63;1.08;;;25.50;99.40;;;;;;5118939;28;20046;-72
2022/09/11 13:08:14;;;;;;;3.28;1.13;;;25.60;99.20;;;;;;5118797;28;20044;-71
2022/09/11 13:10:40;;;;;;;3.78;0.98;;;25.80;99.20;;;;;;5118651;28;20036;-76